Time;durP1;ratioP1;P1;durP2;ratioP2;P2;SDS_P1;SDS_P2;PMS_P1;PMS_P2;Temp;Humidity;BMP_temperature;BMP_pressure;BME280_temperature;BME280_humidity;BME280_pressure;Samples;Min_cycle;Max_cycle;Signal;HPM_P1;HPM_P2
2022/03/20 00:00:15;;;;;;;44.38;36.42;;;26.40;99.30;;;;;;1942315;71;21051;-88
2022/03/20 00:02:48;;;;;;;38.33;33.80;;;26.40;99.10;;;;;;1940237;72;21618;-88
2022/03/20 00:05:19;;;;;;;42.00;34.55;;;26.40;98.90;;;;;;1980141;72;21232;-87
2022/03/20 00:07:50;;;;;;;41.77;34.65;;;26.40;99.20;;;;;;2015383;69;21192;-88
2022/03/20 00:10:21;;;;;;;42.20;34.00;;;26.40;99.40;;;;;;1943074;73;21115;-88
2022/03/20 00:12:52;;;;;;;41.18;33.55;;;26.40;99.00;;;;;;1991575;69;21104;-89
2022/03/20 00:15:23;;;;;;;43.40;34.90;;;26.40;99.00;;;;;;1939807;72;21159;-87
2022/03/20 00:17:54;;;;;;;45.30;36.17;;;26.40;99.40;;;;;;1938631;72;21140;-88
2022/03/20 00:20:26;;;;;;;44.55;36.15;;;26.40;99.40;;;;;;1954793;72;21144;-88
2022/03/20 00:22:58;;;;;;;45.83;37.98;;;26.40;99.70;;;;;;2014012;69;21127;-88
2022/03/20 00:25:29;;;;;;;47.08;36.93;;;26.50;99.30;;;;;;1946786;72;21613;-88
2022/03/20 00:28:01;;;;;;;44.75;38.30;;;26.50;99.20;;;;;;1996548;70;21126;-88
2022/03/20 00:30:32;;;;;;;47.33;37.78;;;26.50;99.40;;;;;;1962377;72;21119;-88
2022/03/20 00:33:03;;;;;;;51.45;37.60;;;26.50;99.50;;;;;;1996410;69;21209;-89
2022/03/20 00:35:43;;;;;;;46.80;37.48;;;26.50;99.30;;;;;;2017804;69;21207;-89
2022/03/20 00:38:15;;;;;;;48.40;37.45;;;26.50;99.20;;;;;;2018027;69;21139;-88
2022/03/20 00:40:46;;;;;;;46.75;37.23;;;26.60;99.50;;;;;;1919102;73;21575;-89
2022/03/20 00:43:17;;;;;;;43.15;35.92;;;26.50;99.40;;;;;;2009510;69;21213;-88
2022/03/20 00:45:49;;;;;;;45.23;35.92;;;26.60;99.30;;;;;;1934797;73;21147;-88
2022/03/20 00:48:21;;;;;;;43.15;36.17;;;26.60;99.50;;;;;;1990471;70;21239;-87
2022/03/20 00:50:52;;;;;;;45.03;35.55;;;26.60;98.90;;;;;;1935327;72;21151;-89
2022/03/20 00:53:23;;;;;;;47.03;36.23;;;26.60;98.80;;;;;;2009464;69;21096;-88
2022/03/20 00:55:57;;;;;;;40.75;33.45;;;26.60;98.90;;;;;;2007917;70;21124;-88
2022/03/20 00:58:28;;;;;;;43.55;34.78;;;26.70;99.00;;;;;;2007638;69;21045;-87
2022/03/20 01:00:59;;;;;;;40.12;34.65;;;26.70;99.00;;;;;;2009509;69;21153;-88
2022/03/20 01:03:31;;;;;;;43.92;35.85;;;26.70;99.10;;;;;;1906643;73;21120;-88
2022/03/20 01:06:02;;;;;;;44.75;34.30;;;26.80;99.10;;;;;;2010719;69;21168;-89
2022/03/20 01:08:32;;;;;;;51.63;37.42;;;26.80;98.70;;;;;;1962142;72;21188;-88
2022/03/20 01:11:05;;;;;;;47.17;36.35;;;26.90;98.70;;;;;;1954309;71;21195;-88
2022/03/20 01:13:38;;;;;;;46.28;36.40;;;26.90;98.60;;;;;;1919963;73;21548;-88
2022/03/20 01:16:09;;;;;;;45.08;36.98;;;27.00;98.90;;;;;;1940086;72;21170;-88
2022/03/20 01:18:40;;;;;;;42.00;36.30;;;27.00;98.70;;;;;;1909157;74;21178;-88
2022/03/20 01:21:12;;;;;;;46.23;36.75;;;27.00;98.90;;;;;;1950429;72;21150;-89
2022/03/20 01:23:43;;;;;;;43.40;35.83;;;27.00;99.20;;;;;;1956353;72;21193;-89
2022/03/20 01:26:14;;;;;;;43.00;35.50;;;27.00;99.00;;;;;;1958534;72;21539;-72
2022/03/20 01:28:46;;;;;;;41.02;35.30;;;27.00;98.80;;;;;;1956950;72;21607;-72
2022/03/20 01:31:17;;;;;;;41.53;33.75;;;27.00;99.10;;;;;;1951334;73;21132;-71
2022/03/20 01:33:48;;;;;;;41.30;33.40;;;27.00;99.00;;;;;;1950253;73;21548;-71
2022/03/20 01:36:19;;;;;;;42.00;35.20;;;27.00;98.90;;;;;;1953075;72;21179;-71
2022/03/20 01:38:50;;;;;;;42.38;33.98;;;27.00;99.10;;;;;;1949522;72;21594;-70
2022/03/20 01:41:22;;;;;;;44.85;35.00;;;27.00;99.00;;;;;;1939471;72;21127;-70
2022/03/20 01:43:55;;;;;;;41.92;34.53;;;27.10;99.30;;;;;;1940207;72;21167;-71
2022/03/20 01:46:27;;;;;;;45.30;35.05;;;27.00;99.40;;;;;;1951443;72;21627;-70
2022/03/20 01:49:01;;;;;;;43.28;35.45;;;27.10;99.30;;;;;;1933940;72;21676;-71
2022/03/20 01:54:05;;;;;;;44.10;35.45;;;27.10;99.40;;;;;;1950395;72;21156;-71
2022/03/20 01:56:36;;;;;;;44.23;35.80;;;27.10;99.50;;;;;;1941170;73;21525;-72
2022/03/20 01:59:07;;;;;;;45.92;36.10;;;27.10;99.40;;;;;;1939849;72;21209;-71
2022/03/20 02:01:39;;;;;;;44.90;36.50;;;27.10;99.60;;;;;;1941891;72;21148;-71
2022/03/20 02:04:12;;;;;;;43.05;35.08;;;27.20;99.40;;;;;;1944154;72;21854;-76
2022/03/20 02:06:46;;;;;;;43.30;36.35;;;27.20;99.90;;;;;;1942900;73;21155;-71
2022/03/20 02:09:17;;;;;;;44.93;36.28;;;27.20;99.50;;;;;;1948005;72;21150;-71
2022/03/20 02:11:48;;;;;;;40.65;32.98;;;27.20;99.60;;;;;;1940396;72;21768;-71
2022/03/20 02:14:19;;;;;;;40.10;33.45;;;27.20;99.70;;;;;;1932661;72;21150;-71
2022/03/20 02:16:51;;;;;;;44.45;32.85;;;27.20;99.30;;;;;;1929691;72;21215;-71
2022/03/20 02:19:22;;;;;;;40.60;31.45;;;27.20;99.30;;;;;;1945890;73;21419;-71
2022/03/20 02:21:55;;;;;;;41.30;31.62;;;27.20;99.10;;;;;;1952865;72;21192;-71
2022/03/20 02:24:28;;;;;;;39.38;31.95;;;27.20;99.00;;;;;;1956309;72;21241;-71
2022/03/20 02:27:02;;;;;;;35.43;27.87;;;27.20;98.90;;;;;;1959786;71;21131;-70
2022/03/20 02:29:34;;;;;;;24.30;18.82;;;27.10;98.80;;;;;;1996302;70;21153;-71
2022/03/20 02:32:06;;;;;;;24.18;17.00;;;27.00;97.70;;;;;;2004947;70;21087;-70
2022/03/20 02:34:38;;;;;;;21.23;15.95;;;26.90;97.20;;;;;;1962401;72;21122;-69
2022/03/20 02:37:13;;;;;;;18.42;12.75;;;26.80;97.30;;;;;;2005298;70;21127;-70
2022/03/20 02:39:45;;;;;;;21.55;13.45;;;26.70;97.10;;;;;;1955240;72;21201;-69
2022/03/20 02:42:16;;;;;;;15.65;10.88;;;26.60;97.30;;;;;;1952294;72;21144;-70
2022/03/20 02:44:50;;;;;;;15.50;11.45;;;26.50;97.20;;;;;;1974000;72;21646;-69
2022/03/20 02:47:23;;;;;;;12.88;10.28;;;26.30;97.00;;;;;;1953396;72;21096;-69
2022/03/20 02:49:58;;;;;;;16.82;11.65;;;26.20;97.40;;;;;;1947172;71;21108;-70
2022/03/20 02:52:31;;;;;;;18.60;12.78;;;26.10;98.10;;;;;;2002982;70;21072;-70
2022/03/20 02:55:03;;;;;;;21.00;14.05;;;26.00;98.70;;;;;;2008034;70;21673;-70
2022/03/20 02:57:35;;;;;;;15.80;13.10;;;25.90;99.20;;;;;;2005468;70;21076;-70
2022/03/20 03:00:07;;;;;;;18.20;12.73;;;25.90;99.50;;;;;;2009189;70;21173;-70
2022/03/20 03:02:45;;;;;;;22.22;13.70;;;25.80;99.90;;;;;;2007924;70;21214;-69
2022/03/20 03:05:18;;;;;;;17.57;12.15;;;25.70;99.90;;;;;;2012574;69;21118;-69
2022/03/20 03:12:56;;;;;;;18.60;12.35;;;25.70;99.90;;;;;;2019965;70;21128;-69
2022/03/20 03:15:27;;;;;;;20.37;12.90;;;25.80;99.90;;;;;;2003380;70;21116;-69
2022/03/20 03:18:00;;;;;;;17.98;13.08;;;25.90;99.90;;;;;;1992987;71;21077;-70
2022/03/20 03:20:33;;;;;;;23.27;13.32;;;26.20;99.90;;;;;;2002891;70;22179;-71
2022/03/20 03:23:05;;;;;;;15.72;12.95;;;26.40;99.90;;;;;;2012227;70;21168;-71
2022/03/20 03:25:40;;;;;;;19.67;12.70;;;26.60;99.90;;;;;;1990915;71;21077;-69
2022/03/20 03:28:11;;;;;;;15.30;12.10;;;26.90;99.10;;;;;;2014269;69;21143;-70
2022/03/20 03:30:45;;;;;;;14.45;11.60;;;27.00;98.90;;;;;;2020236;70;21158;-70
2022/03/20 03:33:18;;;;;;;14.53;11.90;;;27.30;98.80;;;;;;1991149;70;21104;-69
2022/03/20 03:35:57;;;;;;;19.75;13.38;;;27.40;98.40;;;;;;2017525;70;21187;-70
2022/03/20 03:38:26;;;;;;;16.45;12.73;;;27.70;98.20;;;;;;2004975;70;21767;-69
2022/03/20 03:40:58;;;;;;;19.80;13.60;;;27.90;97.90;;;;;;1993636;72;21116;-69
2022/03/20 03:43:30;;;;;;;17.60;14.13;;;28.10;97.60;;;;;;1960382;72;21200;-69
2022/03/20 03:46:01;;;;;;;17.20;14.00;;;28.20;97.20;;;;;;1938507;73;21123;-70
2022/03/20 03:48:32;;;;;;;19.57;14.65;;;28.40;96.60;;;;;;1962331;72;21167;-69
2022/03/20 03:51:04;;;;;;;16.65;14.70;;;28.50;96.30;;;;;;1987113;70;21724;-69
2022/03/20 03:53:37;;;;;;;18.02;14.47;;;28.70;96.30;;;;;;1996328;70;21120;-69
2022/03/20 03:56:08;;;;;;;21.07;15.60;;;28.80;95.50;;;;;;1927779;73;21677;-69
2022/03/20 03:58:41;;;;;;;17.77;13.88;;;28.90;95.30;;;;;;1927197;73;21115;-71
2022/03/20 04:01:12;;;;;;;16.73;14.40;;;29.10;94.90;;;;;;2013692;69;21659;-69
2022/03/20 04:03:43;;;;;;;19.60;14.78;;;29.20;94.70;;;;;;2020725;70;21169;-69
2022/03/20 04:06:14;;;;;;;16.05;14.35;;;29.30;94.80;;;;;;2004032;70;21124;-70
2022/03/20 04:08:45;;;;;;;18.07;13.75;;;29.40;93.90;;;;;;1994657;70;21189;-70
2022/03/20 04:11:16;;;;;;;19.98;15.48;;;29.40;93.80;;;;;;1905850;75;22238;-70
2022/03/20 04:13:48;;;;;;;17.30;15.30;;;29.60;93.40;;;;;;1994206;70;21135;-69
2022/03/20 04:16:19;;;;;;;18.52;15.95;;;29.80;93.50;;;;;;1995706;70;21076;-70
2022/03/20 04:18:53;;;;;;;17.27;14.78;;;29.90;92.80;;;;;;1977703;71;21105;-70
2022/03/20 04:21:23;;;;;;;20.10;15.15;;;30.00;93.00;;;;;;2008737;70;21717;-70
2022/03/20 04:23:55;;;;;;;18.50;14.75;;;30.20;92.00;;;;;;2005746;70;21114;-70
2022/03/20 04:26:26;;;;;;;18.10;14.58;;;30.30;92.10;;;;;;2004930;70;21173;-70
2022/03/20 04:28:58;;;;;;;16.48;14.73;;;30.40;92.00;;;;;;1936538;72;21060;-70
2022/03/20 04:31:29;;;;;;;16.90;14.85;;;30.60;92.00;;;;;;1981581;72;21084;-70
2022/03/20 04:34:01;;;;;;;16.52;14.73;;;30.70;91.90;;;;;;1938231;72;21099;-70
2022/03/20 04:36:34;;;;;;;16.02;13.65;;;30.80;90.70;;;;;;1947969;72;21659;-70
2022/03/20 04:39:04;;;;;;;15.78;14.13;;;30.90;90.30;;;;;;1965782;72;21144;-70
2022/03/20 04:41:35;;;;;;;18.27;14.23;;;31.00;88.20;;;;;;2002622;69;21615;-70
2022/03/20 04:44:12;;;;;;;16.95;13.75;;;31.10;87.00;;;;;;2007793;70;21634;-70
2022/03/20 04:46:40;;;;;;;18.75;14.60;;;31.10;86.30;;;;;;1987890;70;21106;-70
2022/03/20 04:59:25;;;;;;;15.38;13.78;;;31.40;86.80;;;;;;1956351;71;21124;-70
2022/03/20 05:01:57;;;;;;;16.12;13.45;;;31.50;86.50;;;;;;1925688;72;21084;-70
2022/03/20 05:04:28;;;;;;;14.45;12.98;;;31.70;86.80;;;;;;1993616;70;21096;-70
2022/03/20 05:07:06;;;;;;;16.93;12.85;;;31.70;83.90;;;;;;2002787;70;21165;-70
2022/03/20 05:14:42;;;;;;;18.00;14.58;;;31.70;82.40;;;;;;1991692;70;21812;-70
2022/03/20 05:17:13;;;;;;;18.15;13.50;;;31.70;82.30;;;;;;1955888;72;21184;-70
2022/03/20 05:19:44;;;;;;;16.55;14.13;;;31.70;82.90;;;;;;1962247;71;21152;-70
2022/03/20 05:22:15;;;;;;;17.82;13.83;;;32.10;95.00;;;;;;1938096;72;21260;-70
2022/03/20 05:24:46;;;;;;;16.15;13.35;;;31.90;79.80;;;;;;1938546;72;21051;-71
2022/03/20 05:27:17;;;;;;;17.12;13.32;;;32.00;80.90;;;;;;1957667;71;21163;-70
2022/03/20 05:29:48;;;;;;;14.47;12.88;;;32.00;81.10;;;;;;1963090;72;21136;-70
2022/03/20 05:32:20;;;;;;;14.20;12.80;;;32.20;80.40;;;;;;1973965;72;21144;-70
2022/03/20 05:34:51;;;;;;;15.88;13.13;;;32.20;79.00;;;;;;2012691;70;21068;-70
2022/03/20 05:37:22;;;;;;;13.30;11.90;;;32.30;79.70;;;;;;2010636;70;21182;-71
2022/03/20 05:39:56;;;;;;;12.78;11.48;;;32.30;77.60;;;;;;1996745;70;21140;-71
2022/03/20 05:42:29;;;;;;;14.50;11.88;;;32.40;78.10;;;;;;2008565;70;21171;-71
2022/03/20 05:45:02;;;;;;;13.80;12.30;;;32.40;77.60;;;;;;2009381;70;21177;-71
2022/03/20 05:47:33;;;;;;;14.45;12.88;;;32.40;78.80;;;;;;1995949;69;21744;-71
2022/03/20 05:50:06;;;;;;;16.35;12.05;;;32.40;77.90;;;;;;1992481;70;21122;-71
2022/03/20 05:52:37;;;;;;;13.58;12.18;;;32.40;77.90;;;;;;1939481;72;21162;-71
2022/03/20 05:55:11;;;;;;;16.05;12.37;;;32.30;77.90;;;;;;1963424;72;21193;-70
2022/03/20 05:58:03;;;;;;;14.28;12.88;;;32.30;78.50;;;;;;1991859;71;21566;-70
2022/03/20 06:00:34;;;;;;;15.50;13.10;;;32.40;77.80;;;;;;2042219;69;21568;-70
2022/03/20 06:03:05;;;;;;;14.75;12.85;;;32.40;78.30;;;;;;2016518;69;21147;-70
2022/03/20 06:05:36;;;;;;;13.90;12.45;;;32.60;78.30;;;;;;1999297;69;21559;-70
2022/03/20 06:08:10;;;;;;;17.25;13.10;;;33.10;80.50;;;;;;2046747;69;21834;-70
2022/03/20 06:10:43;;;;;;;15.38;12.50;;;32.70;76.00;;;;;;2003572;69;21227;-70
2022/03/20 06:13:14;;;;;;;16.97;14.25;;;32.80;76.10;;;;;;1980780;70;21430;-70
2022/03/20 06:15:47;;;;;;;14.65;12.98;;;32.90;77.80;;;;;;1947823;71;21135;-70
2022/03/20 06:18:18;;;;;;;16.82;12.80;;;33.00;76.30;;;;;;1972326;71;21586;-71
2022/03/20 06:20:49;;;;;;;13.75;11.85;;;33.00;74.80;;;;;;2016804;69;21046;-70
2022/03/20 06:23:20;;;;;;;16.75;13.65;;;33.00;74.60;;;;;;2016303;69;21663;-70
2022/03/20 06:25:52;;;;;;;14.10;12.40;;;32.90;75.10;;;;;;2032415;69;21079;-70
2022/03/20 06:28:23;;;;;;;15.32;13.20;;;32.70;75.60;;;;;;1941316;72;21158;-70
2022/03/20 06:30:55;;;;;;;15.65;14.05;;;32.60;77.00;;;;;;1999346;70;21576;-71
2022/03/20 06:33:26;;;;;;;16.15;13.85;;;32.50;77.70;;;;;;2011440;70;21204;-70
2022/03/20 06:35:57;;;;;;;19.00;14.15;;;32.40;78.40;;;;;;1983142;71;21181;-70
2022/03/20 06:38:30;;;;;;;17.32;15.20;;;32.40;79.00;;;;;;1959197;71;21189;-70
2022/03/20 06:41:01;;;;;;;20.70;14.65;;;32.40;79.10;;;;;;1996634;69;21194;-70
2022/03/20 06:43:35;;;;;;;18.60;16.02;;;32.40;79.00;;;;;;1999405;70;21241;-70
2022/03/20 06:46:06;;;;;;;15.68;14.07;;;32.50;79.70;;;;;;1934274;72;21237;-70
2022/03/20 06:48:38;;;;;;;15.95;14.25;;;32.40;78.70;;;;;;1918555;73;21069;-70
2022/03/20 06:51:09;;;;;;;15.75;14.05;;;32.40;78.50;;;;;;2013964;70;21078;-70
2022/03/20 06:53:40;;;;;;;17.45;14.23;;;32.50;78.80;;;;;;1917832;74;21206;-70
2022/03/20 06:56:12;;;;;;;18.52;14.30;;;32.60;79.30;;;;;;1999553;70;21540;-70
2022/03/20 06:58:44;;;;;;;16.80;14.05;;;32.70;78.80;;;;;;1987559;70;21138;-70
2022/03/20 07:01:15;;;;;;;15.70;14.00;;;32.80;77.90;;;;;;2002895;70;21092;-72
2022/03/20 07:03:46;;;;;;;12.58;11.28;;;33.00;78.20;;;;;;1949302;72;21133;-70
2022/03/20 07:06:18;;;;;;;13.08;10.60;;;33.10;74.10;;;;;;2005502;70;21547;-70
2022/03/20 07:08:48;;;;;;;13.40;12.00;;;33.20;70.70;;;;;;1908560;74;21069;-70
2022/03/20 07:11:19;;;;;;;13.78;11.65;;;33.30;70.30;;;;;;1987920;70;21763;-70
2022/03/20 07:13:52;;;;;;;11.68;10.53;;;33.30;68.50;;;;;;1990096;70;21157;-70
2022/03/20 07:16:30;;;;;;;12.25;11.08;;;33.40;68.30;;;;;;1973304;72;21251;-70
2022/03/20 07:18:59;;;;;;;11.78;10.58;;;33.50;67.40;;;;;;2023153;70;21598;-70
2022/03/20 07:21:32;;;;;;;11.75;10.53;;;33.40;69.70;;;;;;2004936;71;21485;-70
2022/03/20 07:24:04;;;;;;;14.07;11.40;;;33.40;66.60;;;;;;1943170;72;21547;-70
2022/03/20 07:31:40;;;;;;;12.25;10.95;;;33.40;67.70;;;;;;1934322;72;21079;-70
2022/03/20 07:34:11;;;;;;;12.73;10.23;;;33.50;67.40;;;;;;2024800;70;21707;-71
2022/03/20 07:36:42;;;;;;;12.20;10.80;;;33.50;66.70;;;;;;1993051;69;21048;-70
2022/03/20 07:39:13;;;;;;;12.50;10.13;;;33.40;66.10;;;;;;1981286;70;21120;-70
2022/03/20 07:41:44;;;;;;;10.82;9.65;;;33.40;66.70;;;;;;1952114;72;21167;-70
2022/03/20 07:44:15;;;;;;;12.60;10.88;;;33.30;66.20;;;;;;2008871;71;21146;-70
2022/03/20 07:46:46;;;;;;;11.48;10.28;;;33.30;66.60;;;;;;1986214;71;21362;-70
2022/03/20 07:49:17;;;;;;;12.00;10.58;;;33.30;66.00;;;;;;1980361;72;21120;-70
2022/03/20 07:51:48;;;;;;;13.43;10.80;;;33.30;67.20;;;;;;1963498;72;21223;-70
2022/03/20 07:54:20;;;;;;;14.25;11.20;;;33.30;66.40;;;;;;1951082;72;21595;-70
2022/03/20 07:56:50;;;;;;;10.72;9.63;;;33.30;66.60;;;;;;1943858;72;21599;-69
2022/03/20 07:59:21;;;;;;;67.40;13.00;;;33.40;64.80;;;;;;1916114;73;21104;-70
2022/03/20 08:01:52;;;;;;;17.75;9.55;;;33.30;63.40;;;;;;1928573;72;21166;-69
2022/03/20 08:04:24;;;;;;;12.03;9.48;;;33.30;62.80;;;;;;1946096;71;21126;-70
2022/03/20 08:06:55;;;;;;;10.15;9.20;;;33.30;63.10;;;;;;1942740;71;21143;-70
2022/03/20 08:09:29;;;;;;;10.85;9.23;;;33.40;63.40;;;;;;1951799;71;21196;-70
2022/03/20 08:11:58;;;;;;;11.22;9.10;;;33.40;62.70;;;;;;1945537;71;21225;-70
2022/03/20 08:14:30;;;;;;;11.78;8.75;;;33.30;62.60;;;;;;1934505;73;21119;-70
2022/03/20 08:17:01;;;;;;;9.65;8.65;;;33.40;60.20;;;;;;1961259;73;21159;-70
2022/03/20 08:19:32;;;;;;;10.70;8.83;;;33.40;60.70;;;;;;1948814;72;21119;-70
2022/03/20 08:22:05;;;;;;;10.03;9.03;;;33.40;60.30;;;;;;1957968;72;21642;-70
2022/03/20 08:24:36;;;;;;;11.53;9.78;;;33.50;62.30;;;;;;1946264;73;21161;-70
2022/03/20 08:27:07;;;;;;;10.38;9.38;;;33.50;65.10;;;;;;1947256;72;21081;-69
2022/03/20 08:29:38;;;;;;;10.60;9.40;;;33.50;62.70;;;;;;1949247;73;21811;-70
2022/03/20 08:32:10;;;;;;;11.03;9.93;;;33.50;63.70;;;;;;1949129;73;21082;-70
2022/03/20 08:34:40;;;;;;;11.97;10.78;;;33.50;64.90;;;;;;1928024;73;21154;-70
2022/03/20 08:37:14;;;;;;;12.18;9.93;;;33.50;65.10;;;;;;1954855;72;21057;-70
2022/03/20 08:39:45;;;;;;;12.07;10.75;;;33.50;65.40;;;;;;1968300;72;21135;-70
2022/03/20 08:42:17;;;;;;;10.63;8.10;;;33.50;66.00;;;;;;1939022;71;21564;-70
2022/03/20 08:44:52;;;;;;;9.90;8.90;;;33.50;64.90;;;;;;1973359;71;21162;-69
2022/03/20 08:47:25;;;;;;;10.75;9.70;;;33.50;62.70;;;;;;1929453;73;21088;-70
2022/03/20 08:49:55;;;;;;;9.88;8.73;;;33.50;63.80;;;;;;1943406;72;21622;-70
2022/03/20 08:52:48;;;;;;;11.40;9.03;;;33.50;63.50;;;;;;1925771;73;21559;-70
2022/03/20 08:55:19;;;;;;;11.83;9.48;;;33.40;62.90;;;;;;1878840;76;22392;-70
2022/03/20 08:57:52;;;;;;;10.45;9.35;;;33.40;64.10;;;;;;1943743;73;21079;-70
2022/03/20 09:00:25;;;;;;;11.68;10.45;;;33.40;63.40;;;;;;1905679;74;21673;-70
2022/03/20 09:02:56;;;;;;;10.95;9.85;;;33.30;63.90;;;;;;1911182;75;21135;-70
2022/03/20 09:05:28;;;;;;;9.90;8.90;;;33.30;64.40;;;;;;1919443;73;21114;-70
2022/03/20 09:07:58;;;;;;;12.00;9.63;;;33.30;63.60;;;;;;1949378;72;21160;-70
2022/03/20 09:10:30;;;;;;;10.93;9.00;;;33.30;65.50;;;;;;1932523;72;21158;-70
2022/03/20 09:13:01;;;;;;;10.58;9.35;;;33.30;64.20;;;;;;1944978;73;21140;-70
2022/03/20 09:15:32;;;;;;;10.72;9.63;;;33.30;65.00;;;;;;1919591;73;21190;-70
2022/03/20 09:20:38;;;;;;;12.05;10.25;;;33.10;66.70;;;;;;1920006;72;21096;-70
2022/03/20 09:23:11;;;;;;;10.95;9.00;;;33.10;66.90;;;;;;1954696;72;21225;-71
2022/03/20 09:25:42;;;;;;;10.88;8.80;;;33.10;66.40;;;;;;1925443;72;21842;-70
2022/03/20 09:28:14;;;;;;;9.98;8.63;;;33.10;65.10;;;;;;1910492;72;21171;-70
2022/03/20 09:30:45;;;;;;;10.75;8.80;;;33.10;64.50;;;;;;1935010;72;21130;-71
2022/03/20 09:33:16;;;;;;;10.43;9.13;;;33.00;62.80;;;;;;1941572;73;21179;-70
2022/03/20 09:35:47;;;;;;;12.82;9.55;;;33.00;62.60;;;;;;1935318;73;21197;-70
2022/03/20 09:38:20;;;;;;;10.88;9.73;;;33.00;64.50;;;;;;1919269;72;21569;-70
2022/03/20 09:40:52;;;;;;;11.03;9.93;;;33.00;65.40;;;;;;1909978;72;21632;-70
2022/03/20 09:43:23;;;;;;;11.22;9.28;;;33.00;65.60;;;;;;1914619;73;21076;-71
2022/03/20 09:45:55;;;;;;;9.00;8.10;;;32.90;66.10;;;;;;1938123;72;21175;-70
2022/03/20 09:48:29;;;;;;;9.85;8.28;;;32.90;65.20;;;;;;1913272;73;21151;-70
2022/03/20 09:51:02;;;;;;;11.75;9.43;;;32.90;63.50;;;;;;1922263;72;21543;-70
2022/03/20 09:53:33;;;;;;;10.38;9.28;;;32.80;64.60;;;;;;1921486;72;21670;-70
2022/03/20 09:56:07;;;;;;;9.35;8.35;;;32.80;64.40;;;;;;1920045;72;21237;-70
2022/03/20 09:58:37;;;;;;;9.23;8.23;;;32.80;63.20;;;;;;1910148;73;21646;-70
2022/03/20 10:01:09;;;;;;;8.80;7.90;;;32.80;62.60;;;;;;1910805;74;21621;-71
2022/03/20 10:03:41;;;;;;;10.78;8.93;;;32.70;61.30;;;;;;1924210;73;21661;-71
2022/03/20 10:06:17;;;;;;;9.15;7.97;;;32.80;62.40;;;;;;1916577;73;21116;-70
2022/03/20 10:08:49;;;;;;;9.33;8.33;;;32.80;62.30;;;;;;1917017;73;21637;-70
2022/03/20 10:11:20;;;;;;;8.73;7.87;;;32.80;62.30;;;;;;1907462;73;21147;-70
2022/03/20 10:13:53;;;;;;;10.13;8.08;;;32.80;61.50;;;;;;1920090;72;21146;-70
2022/03/20 10:16:24;;;;;;;10.80;9.33;;;32.70;61.90;;;;;;1912791;72;21568;-70
2022/03/20 10:18:55;;;;;;;11.28;9.48;;;32.70;63.00;;;;;;1926163;72;21166;-71
2022/03/20 10:21:29;;;;;;;9.85;8.58;;;32.70;63.90;;;;;;1920151;73;21175;-70
2022/03/20 10:24:00;;;;;;;11.20;9.50;;;32.70;63.40;;;;;;1915399;72;21685;-70
2022/03/20 10:26:32;;;;;;;10.82;9.15;;;32.70;64.30;;;;;;1914343;73;21144;-70
2022/03/20 10:29:03;;;;;;;9.28;8.30;;;32.60;64.30;;;;;;1915557;73;21177;-70
2022/03/20 10:31:36;;;;;;;13.03;10.53;;;32.60;64.20;;;;;;1937223;72;21608;-70
2022/03/20 10:34:08;;;;;;;12.05;9.78;;;32.50;65.50;;;;;;1913524;72;21664;-85
2022/03/20 10:36:39;;;;;;;12.25;10.50;;;32.50;65.80;;;;;;1907251;72;21147;-83
2022/03/20 10:39:14;;;;;;;14.85;13.00;;;32.40;66.50;;;;;;1921446;72;21131;-84
2022/03/20 10:41:45;;;;;;;16.05;8.63;;;32.40;67.10;;;;;;1930834;73;21112;-84
2022/03/20 10:44:20;;;;;;;9.63;8.63;;;32.30;65.90;;;;;;1927111;73;21142;-84
2022/03/20 10:46:53;;;;;;;9.98;8.90;;;32.30;65.80;;;;;;1908464;74;21095;-83
2022/03/20 10:49:25;;;;;;;12.58;10.75;;;32.30;66.40;;;;;;1909013;73;21154;-84
2022/03/20 10:51:58;;;;;;;10.35;8.85;;;32.20;67.20;;;;;;1923201;73;21081;-83
2022/03/20 10:54:32;;;;;;;10.23;8.88;;;32.20;66.70;;;;;;1926096;72;21190;-83
2022/03/20 10:57:05;;;;;;;13.35;9.90;;;32.20;67.10;;;;;;1911384;72;21076;-84
2022/03/20 10:59:36;;;;;;;14.83;11.05;;;32.10;67.60;;;;;;1912833;73;21148;-84
2022/03/20 11:02:09;;;;;;;14.58;11.40;;;32.10;68.50;;;;;;1917593;73;21155;-85
2022/03/20 11:04:41;;;;;;;16.82;12.03;;;32.10;69.30;;;;;;1846552;76;21643;-85
2022/03/20 11:07:16;;;;;;;11.22;10.03;;;32.00;69.40;;;;;;1855517;75;21179;-84
2022/03/20 11:09:46;;;;;;;10.10;8.70;;;32.00;68.80;;;;;;1886229;75;21547;-84
2022/03/20 11:12:20;;;;;;;14.50;12.55;;;31.90;68.50;;;;;;1866896;75;21120;-85
2022/03/20 11:14:52;;;;;;;15.75;10.50;;;31.90;69.30;;;;;;1853966;75;21156;-85
2022/03/20 11:17:25;;;;;;;13.85;11.85;;;31.90;69.30;;;;;;1923896;74;21155;-83
2022/03/20 11:19:58;;;;;;;12.65;10.48;;;31.80;69.90;;;;;;1946995;73;21204;-84
2022/03/20 11:22:29;;;;;;;19.55;13.13;;;31.80;69.90;;;;;;1921493;73;21131;-83
2022/03/20 11:25:05;;;;;;;18.00;13.40;;;31.80;70.40;;;;;;1905937;73;21086;-83
2022/03/20 11:27:38;;;;;;;19.57;14.68;;;31.80;71.30;;;;;;1916664;72;21218;-83
2022/03/20 11:30:09;;;;;;;21.87;13.93;;;31.70;71.60;;;;;;1938807;73;21068;-83
2022/03/20 11:32:47;;;;;;;20.40;14.83;;;31.70;71.90;;;;;;1915187;73;21220;-83
2022/03/20 11:35:21;;;;;;;18.37;13.13;;;31.60;72.10;;;;;;1916034;73;21096;-84
2022/03/20 11:37:54;;;;;;;19.45;13.65;;;31.60;72.30;;;;;;1909413;72;21203;-84
2022/03/20 11:40:25;;;;;;;17.70;14.68;;;31.50;72.70;;;;;;1841664;76;21096;-85
2022/03/20 11:42:59;;;;;;;16.17;13.28;;;31.50;73.10;;;;;;1855839;75;21451;-84
2022/03/20 11:45:30;;;;;;;14.53;11.22;;;31.50;73.20;;;;;;1846867;75;21124;-82
2022/03/20 11:48:03;;;;;;;12.80;11.35;;;31.50;72.90;;;;;;1919670;73;21264;-84
2022/03/20 11:50:36;;;;;;;18.67;14.23;;;31.50;72.90;;;;;;1906045;74;21217;-83
2022/03/20 11:53:09;;;;;;;17.60;12.40;;;31.50;73.30;;;;;;1905230;72;21175;-83
2022/03/20 11:55:45;;;;;;;14.78;12.05;;;31.50;73.30;;;;;;1937249;72;21128;-84
2022/03/20 11:58:21;;;;;;;12.85;11.53;;;31.50;73.70;;;;;;1929127;73;21068;-83
2022/03/20 12:00:53;;;;;;;13.85;11.33;;;31.50;73.70;;;;;;1934740;73;21124;-84
2022/03/20 12:03:27;;;;;;;15.03;12.05;;;31.50;73.60;;;;;;1945054;72;21181;-83
2022/03/20 12:06:00;;;;;;;14.83;11.88;;;31.40;73.20;;;;;;1924339;73;21077;-84
2022/03/20 12:08:34;;;;;;;17.15;12.58;;;31.40;73.10;;;;;;1867749;75;21272;-84
2022/03/20 12:11:07;;;;;;;17.70;12.53;;;31.40;73.20;;;;;;1873646;75;21183;-84
2022/03/20 12:13:40;;;;;;;15.15;11.35;;;31.40;73.20;;;;;;1877214;76;21131;-83
2022/03/20 12:16:11;;;;;;;14.05;11.80;;;31.40;73.30;;;;;;1855648;76;21146;-83
2022/03/20 12:18:45;;;;;;;15.32;12.90;;;31.40;73.40;;;;;;1963485;72;21131;-83
2022/03/20 12:21:16;;;;;;;15.98;12.65;;;31.40;73.80;;;;;;1933985;72;21052;-83
2022/03/20 12:23:47;;;;;;;15.85;12.45;;;31.40;74.20;;;;;;1923505;72;21245;-83
2022/03/20 12:26:21;;;;;;;14.50;12.28;;;31.30;74.20;;;;;;1922674;72;21166;-83
2022/03/20 12:28:52;;;;;;;17.42;13.60;;;31.30;74.50;;;;;;1881729;74;21180;-83
2022/03/20 12:31:25;;;;;;;19.55;13.22;;;31.20;75.40;;;;;;1880109;73;21201;-83
2022/03/20 12:33:59;;;;;;;15.53;12.28;;;31.20;76.20;;;;;;1890385;75;21062;-84
2022/03/20 12:36:31;;;;;;;18.50;12.90;;;31.20;76.20;;;;;;1855573;76;21238;-84
2022/03/20 12:39:01;;;;;;;15.55;13.35;;;31.10;76.00;;;;;;1867267;75;21120;-83
2022/03/20 12:41:32;;;;;;;17.25;12.60;;;31.10;76.60;;;;;;1859888;75;21152;-83
2022/03/20 12:44:07;;;;;;;19.50;14.43;;;31.10;76.20;;;;;;1931382;72;21127;-83
2022/03/20 12:46:45;;;;;;;17.00;14.03;;;31.00;76.60;;;;;;1932741;72;21609;-83
2022/03/20 12:49:11;;;;;;;21.87;16.23;;;31.00;77.30;;;;;;1876365;75;21240;-83
2022/03/20 12:51:44;;;;;;;20.35;14.73;;;31.00;78.30;;;;;;1903913;73;21133;-83
2022/03/20 12:54:16;;;;;;;19.87;15.08;;;31.00;78.90;;;;;;1908500;73;21150;-82
2022/03/20 12:56:50;;;;;;;22.35;15.38;;;31.00;79.70;;;;;;1915126;73;21152;-82
2022/03/20 12:59:26;;;;;;;18.65;14.83;;;31.00;80.20;;;;;;1916354;73;21108;-83
2022/03/20 13:01:55;;;;;;;19.37;14.65;;;31.00;79.90;;;;;;1911277;74;21163;-84
2022/03/20 13:04:27;;;;;;;19.67;14.70;;;30.90;80.50;;;;;;1915967;73;21248;-84
2022/03/20 13:06:58;;;;;;;18.12;15.55;;;30.90;80.50;;;;;;1922479;73;21194;-82
2022/03/20 13:09:29;;;;;;;22.87;15.65;;;30.90;81.20;;;;;;1916614;73;21127;-83
2022/03/20 13:12:03;;;;;;;20.50;16.10;;;30.90;81.40;;;;;;1938228;73;21136;-82
2022/03/20 13:14:35;;;;;;;19.27;15.30;;;30.90;82.00;;;;;;1931369;73;21198;-83
2022/03/20 13:17:06;;;;;;;15.75;14.05;;;30.90;81.80;;;;;;1921807;73;21229;-82
2022/03/20 13:19:39;;;;;;;19.05;14.53;;;30.90;82.20;;;;;;1930172;73;21657;-83
2022/03/20 13:22:12;;;;;;;20.60;14.13;;;30.80;81.80;;;;;;1907974;74;21171;-83
2022/03/20 13:24:46;;;;;;;16.65;13.48;;;30.80;81.90;;;;;;1918874;73;21131;-83